This is the latest recevied weather packets stored in our database for station/object KQ4HDO. If no packets are shown the sender has not sent any weather packets the latest 10 day(s).
| Time | Temp. | Humidity | Pressure | Rain* | Wind** | Luminosity | Snow |
|---|---|---|---|---|---|---|---|
| 1777839903 | 25.56° C | 34% | 1009.1 hPa | 0 mm | - | - | - |
| 1777839003 | 25° C | 37% | 1009.4 hPa | 0 mm | - | - | - |
| 1777838103 | 24.44° C | 35% | 1009.5 hPa | 0 mm | - | - | - |
| 1777836603 | 23.89° C | 36% | 1010 hPa | 0 mm | - | - | - |
| 1777836303 | 23.89° C | 36% | 1010.1 hPa | 0 mm | - | - | - |
| 1777833438 | 23.33° C | 36% | 1011.1 hPa | 0 mm | - | - | - |
| 1777831503 | 22.22° C | 35% | 1012.1 hPa | 0 mm | - | - | - |
| 1777830003 | 21.67° C | 37% | 1013 hPa | 0 mm | - | - | - |
| 1777826403 | 19.44° C | 40% | 1014.9 hPa | 0 mm | - | - | - |
| 1777825037 | 18.89° C | 43% | 1015 hPa | 0 mm | - | - | - |
| 1777821737 | 16.67° C | 52% | 1015.7 hPa | 0 mm | - | - | - |
| 1777815603 | 11.67° C | 60% | 1016.8 hPa | 0 mm | - | - | - |
| 1777814403 | 11.11° C | 63% | 1016.9 hPa | 0 mm | - | - | - |
| 1777812003 | 8.33° C | 73% | 1017.1 hPa | 0 mm | - | - | - |
| 1777809903 | 6.11° C | 83% | 1017 hPa | 0 mm | - | - | - |
| 1777809003 | 4.44° C | 88% | 1016.7 hPa | 0 mm | - | - | - |
| 1777807203 | 2.78° C | 91% | 1016.4 hPa | 0 mm | - | - | - |
| 1777806003 | 2.78° C | 91% | 1016.2 hPa | 0 mm | - | - | - |
| 1777804036 | 3.33° C | 91% | 1016.2 hPa | 0 mm | - | - | - |
| 1777803603 | 3.33° C | 91% | 1016.4 hPa | 0 mm | - | - | - |
| 1777803303 | 3.33° C | 91% | 1016.5 hPa | 0 mm | - | - | - |
| 1777803003 | 3.33° C | 91% | 1016.5 hPa | 0 mm | - | - | - |
| 1777802103 | 3.33° C | 91% | 1016.5 hPa | 0 mm | - | - | - |
| 1777800903 | 3.33° C | 91% | 1016.8 hPa | 0 mm | - | - | - |
| 1777799838 | 3.33° C | 91% | 1016.9 hPa | 0 mm | - | - | - |
* Rain latest hour (hover to see other rain measurements)
** Current wind speed in m/s (hover to see current wind gust speed)